sensor_id;sensor_type;location;lat;lon;timestamp;noise_LAeq;noise_LA_min;noise_LA_max;noise_LA01;noise_LA95
73822;Laerm;62152;52.078;8.414;2023-04-28T00:00:58;50.50;49.25;52.47;;
73822;Laerm;62152;52.078;8.414;2023-04-28T00:08:59;50.46;49.35;52.25;;
73822;Laerm;62152;52.078;8.414;2023-04-28T00:13:01;50.44;49.38;52.00;;
73822;Laerm;62152;52.078;8.414;2023-04-28T00:17:02;50.44;49.38;52.00;;
73822;Laerm;62152;52.078;8.414;2023-04-28T00:21:03;50.46;49.39;52.09;;
73822;Laerm;62152;52.078;8.414;2023-04-28T00:25:05;50.47;49.46;52.02;;
73822;Laerm;62152;52.078;8.414;2023-04-28T00:29:07;50.48;49.34;51.84;;
73822;Laerm;62152;52.078;8.414;2023-04-28T00:33:08;50.48;49.49;52.02;;
73822;Laerm;62152;52.078;8.414;2023-04-28T00:45:12;0.00;0.00;0.00;;
73822;Laerm;62152;52.078;8.414;2023-04-28T00:49:14;50.48;49.36;51.86;;
73822;Laerm;62152;52.078;8.414;2023-04-28T00:53:16;50.49;49.39;51.86;;
73822;Laerm;62152;52.078;8.414;2023-04-28T00:57:17;50.49;49.33;52.03;;
73822;Laerm;62152;52.078;8.414;2023-04-28T01:05:20;50.52;49.41;52.50;;
73822;Laerm;62152;52.078;8.414;2023-04-28T01:09:21;50.48;49.45;51.94;;
73822;Laerm;62152;52.078;8.414;2023-04-28T01:13:24;50.50;49.41;51.89;;
73822;Laerm;62152;52.078;8.414;2023-04-28T01:17:27;50.50;49.47;52.04;;
73822;Laerm;62152;52.078;8.414;2023-04-28T01:21:30;50.48;49.30;51.99;;
73822;Laerm;62152;52.078;8.414;2023-04-28T01:25:32;50.47;49.24;52.07;;
73822;Laerm;62152;52.078;8.414;2023-04-28T01:29:33;50.47;49.45;51.84;;
73822;Laerm;62152;52.078;8.414;2023-04-28T01:33:34;50.48;49.44;52.09;;
73822;Laerm;62152;52.078;8.414;2023-04-28T01:37:35;50.48;49.41;52.09;;
73822;Laerm;62152;52.078;8.414;2023-04-28T01:41:37;50.48;49.33;52.03;;
73822;Laerm;62152;52.078;8.414;2023-04-28T01:45:38;50.52;49.57;52.17;;
73822;Laerm;62152;52.078;8.414;2023-04-28T01:49:39;50.57;49.33;52.18;;
73822;Laerm;62152;52.078;8.414;2023-04-28T01:53:42;50.54;49.38;51.93;;
73822;Laerm;62152;52.078;8.414;2023-04-28T01:57:44;50.54;49.44;52.58;;
73822;Laerm;62152;52.078;8.414;2023-04-28T02:01:45;50.54;49.56;52.06;;
73822;Laerm;62152;52.078;8.414;2023-04-28T02:09:47;50.49;49.39;52.28;;
73822;Laerm;62152;52.078;8.414;2023-04-28T02:13:49;50.46;49.41;51.93;;
73822;Laerm;62152;52.078;8.414;2023-04-28T02:21:50;53.87;52.63;55.56;;
73822;Laerm;62152;52.078;8.414;2023-04-28T02:26:00;53.87;52.88;56.09;;
73822;Laerm;62152;52.078;8.414;2023-04-28T02:30:03;53.89;52.85;55.48;;
73822;Laerm;62152;52.078;8.414;2023-04-28T02:34:04;53.87;52.78;55.57;;
73822;Laerm;62152;52.078;8.414;2023-04-28T02:38:05;53.91;52.85;55.99;;
73822;Laerm;62152;52.078;8.414;2023-04-28T02:42:06;53.91;52.96;55.60;;
73822;Laerm;62152;52.078;8.414;2023-04-28T02:46:08;53.91;52.96;55.60;;
73822;Laerm;62152;52.078;8.414;2023-04-28T02:50:09;53.85;52.71;55.49;;
73822;Laerm;62152;52.078;8.414;2023-04-28T02:54:10;53.87;52.64;55.48;;
73822;Laerm;62152;52.078;8.414;2023-04-28T02:58:11;53.91;52.95;55.61;;
73822;Laerm;62152;52.078;8.414;2023-04-28T03:02:13;53.91;52.83;55.60;;
73822;Laerm;62152;52.078;8.414;2023-04-28T03:06:14;53.87;52.84;55.83;;
73822;Laerm;62152;52.078;8.414;2023-04-28T03:10:15;53.88;52.84;55.35;;
73822;Laerm;62152;52.078;8.414;2023-04-28T03:14:16;53.94;52.79;55.39;;
73822;Laerm;62152;52.078;8.414;2023-04-28T03:18:19;53.93;52.82;56.36;;
73822;Laerm;62152;52.078;8.414;2023-04-28T03:22:19;53.96;52.74;69.15;;
73822;Laerm;62152;52.078;8.414;2023-04-28T03:26:21;54.26;52.59;70.81;;
73822;Laerm;62152;52.078;8.414;2023-04-28T03:30:23;53.70;52.48;66.48;;
73822;Laerm;62152;52.078;8.414;2023-04-28T03:34:25;53.70;52.48;66.48;;
73822;Laerm;62152;52.078;8.414;2023-04-28T03:38:26;53.62;52.53;55.46;;
73822;Laerm;62152;52.078;8.414;2023-04-28T03:42:27;53.63;52.54;55.40;;
73822;Laerm;62152;52.078;8.414;2023-04-28T03:46:41;53.63;52.45;55.53;;
73822;Laerm;62152;52.078;8.414;2023-04-28T03:50:43;53.57;52.53;55.57;;
73822;Laerm;62152;52.078;8.414;2023-04-28T03:54:44;53.67;52.47;65.43;;
73822;Laerm;62152;52.078;8.414;2023-04-28T03:58:45;53.69;52.41;61.65;;
73822;Laerm;62152;52.078;8.414;2023-04-28T04:02:46;55.00;52.41;65.52;;
73822;Laerm;62152;52.078;8.414;2023-04-28T04:06:48;53.87;52.30;73.49;;
73822;Laerm;62152;52.078;8.414;2023-04-28T04:10:49;53.70;52.32;57.68;;
73822;Laerm;62152;52.078;8.414;2023-04-28T04:14:50;53.80;52.57;65.05;;
73822;Laerm;62152;52.078;8.414;2023-04-28T04:18:52;53.91;52.47;71.83;;
73822;Laerm;62152;52.078;8.414;2023-04-28T04:22:58;53.63;52.57;55.66;;
73822;Laerm;62152;52.078;8.414;2023-04-28T04:26:59;53.64;52.60;55.67;;
73822;Laerm;62152;52.078;8.414;2023-04-28T04:35:09;50.35;49.28;52.64;;
73822;Laerm;62152;52.078;8.414;2023-04-28T04:39:12;50.32;49.33;52.06;;
73822;Laerm;62152;52.078;8.414;2023-04-28T04:43:12;50.35;49.28;52.07;;
73822;Laerm;62152;52.078;8.414;2023-04-28T04:47:19;50.35;49.28;52.07;;
73822;Laerm;62152;52.078;8.414;2023-04-28T04:51:22;50.36;49.29;52.09;;
73822;Laerm;62152;52.078;8.414;2023-04-28T04:55:25;50.41;49.25;52.02;;
73822;Laerm;62152;52.078;8.414;2023-04-28T04:59:26;50.40;49.39;55.97;;
73822;Laerm;62152;52.078;8.414;2023-04-28T05:03:34;50.38;49.29;52.41;;
73822;Laerm;62152;52.078;8.414;2023-04-28T05:07:36;50.37;49.33;52.11;;
73822;Laerm;62152;52.078;8.414;2023-04-28T05:11:38;50.37;49.33;52.25;;
73822;Laerm;62152;52.078;8.414;2023-04-28T05:15:39;50.39;49.24;52.26;;
73822;Laerm;62152;52.078;8.414;2023-04-28T05:20:02;50.42;49.38;52.22;;
73822;Laerm;62152;52.078;8.414;2023-04-28T05:24:04;50.42;49.38;52.22;;
73822;Laerm;62152;52.078;8.414;2023-04-28T05:28:09;50.46;49.29;53.35;;
73822;Laerm;62152;52.078;8.414;2023-04-28T05:32:09;50.47;49.19;52.95;;
73822;Laerm;62152;52.078;8.414;2023-04-28T05:36:11;50.40;49.18;52.09;;
73822;Laerm;62152;52.078;8.414;2023-04-28T05:44:15;50.42;49.28;52.56;;
73822;Laerm;62152;52.078;8.414;2023-04-28T05:48:16;50.49;49.35;52.19;;
73822;Laerm;62152;52.078;8.414;2023-04-28T05:52:17;50.42;49.36;51.98;;
73822;Laerm;62152;52.078;8.414;2023-04-28T05:56:19;51.35;49.32;71.21;;
73822;Laerm;62152;52.078;8.414;2023-04-28T06:04:25;50.45;49.25;61.99;;
73822;Laerm;62152;52.078;8.414;2023-04-28T06:08:26;50.55;49.35;58.34;;
73822;Laerm;62152;52.078;8.414;2023-04-28T06:12:27;50.39;49.24;52.72;;
73822;Laerm;62152;52.078;8.414;2023-04-28T06:16:29;50.40;49.43;52.44;;
73822;Laerm;62152;52.078;8.414;2023-04-28T06:20:31;52.35;49.33;76.17;;
73822;Laerm;62152;52.078;8.414;2023-04-28T06:28:35;42.45;36.91;73.03;;
73822;Laerm;62152;52.078;8.414;2023-04-28T06:32:37;39.78;36.91;52.62;;
73822;Laerm;62152;52.078;8.414;2023-04-28T06:36:38;39.61;36.91;47.59;;
73822;Laerm;62152;52.078;8.414;2023-04-28T06:40:39;40.29;37.32;53.74;;
73822;Laerm;62152;52.078;8.414;2023-04-28T06:44:41;39.89;37.12;52.79;;
73822;Laerm;62152;52.078;8.414;2023-04-28T06:48:43;39.61;36.91;55.49;;
73822;Laerm;62152;52.078;8.414;2023-04-28T06:52:44;39.91;37.12;47.55;;
73822;Laerm;62152;52.078;8.414;2023-04-28T06:56:44;39.92;36.45;43.09;;
73822;Laerm;62152;52.078;8.414;2023-04-28T07:04:47;39.28;36.69;43.77;;
73822;Laerm;62152;52.078;8.414;2023-04-28T07:08:48;39.59;36.20;46.25;;
73822;Laerm;62152;52.078;8.414;2023-04-28T07:12:49;39.51;36.91;44.76;;
73822;Laerm;62152;52.078;8.414;2023-04-28T07:16:50;39.39;36.34;41.82;;
73822;Laerm;62152;52.078;8.414;2023-04-28T07:20:53;39.53;36.77;44.03;;
73822;Laerm;62152;52.078;8.414;2023-04-28T07:24:53;39.40;36.91;42.22;;
73822;Laerm;62152;52.078;8.414;2023-04-28T07:28:54;39.43;36.69;46.22;;
73822;Laerm;62152;52.078;8.414;2023-04-28T07:32:55;40.20;36.69;48.96;;
73822;Laerm;62152;52.078;8.414;2023-04-28T07:36:57;39.55;36.20;46.48;;
73822;Laerm;62152;52.078;8.414;2023-04-28T07:44:59;39.75;36.91;46.57;;
73822;Laerm;62152;52.078;8.414;2023-04-28T07:53:03;39.46;36.91;43.39;;
73822;Laerm;62152;52.078;8.414;2023-04-28T07:57:03;39.25;36.45;42.71;;
73822;Laerm;62152;52.078;8.414;2023-04-28T08:01:04;39.53;37.12;42.82;;
73822;Laerm;62152;52.078;8.414;2023-04-28T08:05:06;39.83;36.69;45.48;;
73822;Laerm;62152;52.078;8.414;2023-04-28T08:09:08;39.52;36.91;44.19;;
73822;Laerm;62152;52.078;8.414;2023-04-28T08:13:09;39.93;36.91;49.65;;
73822;Laerm;62152;52.078;8.414;2023-04-28T08:25:13;39.84;37.12;45.72;;
73822;Laerm;62152;52.078;8.414;2023-04-28T08:29:14;39.67;37.12;45.91;;
73822;Laerm;62152;52.078;8.414;2023-04-28T08:33:15;39.83;36.98;46.84;;
73822;Laerm;62152;52.078;8.414;2023-04-28T08:37:16;39.61;36.69;45.57;;
73822;Laerm;62152;52.078;8.414;2023-04-28T08:41:18;39.75;36.69;50.25;;
73822;Laerm;62152;52.078;8.414;2023-04-28T08:45:23;39.87;37.12;47.08;;
73822;Laerm;62152;52.078;8.414;2023-04-28T08:49:34;40.27;37.12;51.11;;
73822;Laerm;62152;52.078;8.414;2023-04-28T08:53:38;39.74;37.12;49.29;;
73822;Laerm;62152;52.078;8.414;2023-04-28T08:57:44;39.67;36.45;46.35;;
73822;Laerm;62152;52.078;8.414;2023-04-28T09:01:47;39.53;37.32;42.98;;
73822;Laerm;62152;52.078;8.414;2023-04-28T09:09:49;39.93;36.91;49.81;;
73822;Laerm;62152;52.078;8.414;2023-04-28T09:13:51;39.67;37.32;46.15;;
73822;Laerm;62152;52.078;8.414;2023-04-28T09:17:53;39.80;37.12;47.63;;
73822;Laerm;62152;52.078;8.414;2023-04-28T09:21:55;40.37;36.69;53.92;;
73822;Laerm;62152;52.078;8.414;2023-04-28T09:26:01;39.84;36.91;47.46;;
73822;Laerm;62152;52.078;8.414;2023-04-28T09:30:06;39.73;36.91;45.91;;
73822;Laerm;62152;52.078;8.414;2023-04-28T09:34:07;39.73;36.91;45.91;;
73822;Laerm;62152;52.078;8.414;2023-04-28T09:38:08;39.70;37.32;44.62;;
73822;Laerm;62152;52.078;8.414;2023-04-28T09:42:09;39.49;37.12;42.47;;
73822;Laerm;62152;52.078;8.414;2023-04-28T09:46:11;39.67;36.91;45.36;;
73822;Laerm;62152;52.078;8.414;2023-04-28T09:50:16;39.75;36.91;47.06;;
73822;Laerm;62152;52.078;8.414;2023-04-28T09:54:20;40.11;36.69;47.91;;
73822;Laerm;62152;52.078;8.414;2023-04-28T09:58:24;39.59;36.91;45.36;;
73822;Laerm;62152;52.078;8.414;2023-04-28T10:02:28;39.81;37.12;44.62;;
73822;Laerm;62152;52.078;8.414;2023-04-28T10:10:30;39.68;36.69;49.46;;
73822;Laerm;62152;52.078;8.414;2023-04-28T10:14:32;39.97;36.69;49.20;;
73822;Laerm;62152;52.078;8.414;2023-04-28T10:18:36;46.64;36.69;81.06;;
73822;Laerm;62152;52.078;8.414;2023-04-28T10:22:59;39.78;36.69;48.15;;
73822;Laerm;62152;52.078;8.414;2023-04-28T10:31:10;39.67;36.69;53.41;;
73822;Laerm;62152;52.078;8.414;2023-04-28T10:40:30;41.86;36.91;67.84;;
73822;Laerm;62152;52.078;8.414;2023-04-28T10:49:04;39.41;36.45;44.11;;
73822;Laerm;62152;52.078;8.414;2023-04-28T10:53:06;39.62;36.91;46.73;;
73822;Laerm;62152;52.078;8.414;2023-04-28T10:57:20;39.70;36.91;46.35;;
73822;Laerm;62152;52.078;8.414;2023-04-28T11:01:26;39.71;36.45;49.56;;
73822;Laerm;62152;52.078;8.414;2023-04-28T11:05:27;39.67;37.32;44.35;;
73822;Laerm;62152;52.078;8.414;2023-04-28T11:09:48;39.77;37.52;52.39;;
73822;Laerm;62152;52.078;8.414;2023-04-28T11:13:49;40.22;36.91;64.54;;
73822;Laerm;62152;52.078;8.414;2023-04-28T11:22:01;53.65;33.90;81.76;;
73822;Laerm;62152;52.078;8.414;2023-04-28T11:30:19;43.79;36.69;66.73;;
73822;Laerm;62152;52.078;8.414;2023-04-28T11:34:21;44.08;36.69;63.62;;
73822;Laerm;62152;52.078;8.414;2023-04-28T11:38:23;41.23;37.12;66.63;;
73822;Laerm;62152;52.078;8.414;2023-04-28T11:42:25;40.61;36.91;52.74;;
73822;Laerm;62152;52.078;8.414;2023-04-28T11:50:35;40.27;36.69;51.34;;
73822;Laerm;62152;52.078;8.414;2023-04-28T11:58:39;40.49;36.91;52.31;;
73822;Laerm;62152;52.078;8.414;2023-04-28T12:02:40;39.75;37.12;43.09;;
73822;Laerm;62152;52.078;8.414;2023-04-28T12:10:41;39.73;36.91;49.55;;
73822;Laerm;62152;52.078;8.414;2023-04-28T12:14:58;39.45;35.94;46.55;;
73822;Laerm;62152;52.078;8.414;2023-04-28T12:18:59;39.35;36.20;45.54;;
73822;Laerm;62152;52.078;8.414;2023-04-28T12:23:00;39.36;36.45;48.91;;
73822;Laerm;62152;52.078;8.414;2023-04-28T12:27:15;39.40;36.20;43.77;;
73822;Laerm;62152;52.078;8.414;2023-04-28T12:31:17;39.42;36.91;44.23;;
73822;Laerm;62152;52.078;8.414;2023-04-28T12:39:21;39.61;36.20;48.66;;
73822;Laerm;62152;52.078;8.414;2023-04-28T12:43:22;39.47;36.91;44.73;;
73822;Laerm;62152;52.078;8.414;2023-04-28T12:47:25;39.58;36.20;50.43;;
73822;Laerm;62152;52.078;8.414;2023-04-28T12:51:26;39.79;36.45;44.58;;
73822;Laerm;62152;52.078;8.414;2023-04-28T12:59:30;39.58;36.91;45.75;;
73822;Laerm;62152;52.078;8.414;2023-04-28T13:03:32;39.50;36.91;50.97;;
73822;Laerm;62152;52.078;8.414;2023-04-28T13:07:33;39.96;36.77;51.57;;
73822;Laerm;62152;52.078;8.414;2023-04-28T13:11:34;39.78;36.69;45.42;;
73822;Laerm;62152;52.078;8.414;2023-04-28T13:15:35;39.61;36.91;47.28;;
73822;Laerm;62152;52.078;8.414;2023-04-28T13:19:37;41.49;36.45;57.60;;
73822;Laerm;62152;52.078;8.414;2023-04-28T13:23:38;48.35;35.66;70.18;;
73822;Laerm;62152;52.078;8.414;2023-04-28T13:27:39;43.30;36.91;69.17;;
73822;Laerm;62152;52.078;8.414;2023-04-28T13:31:40;40.59;37.32;53.44;;
73822;Laerm;62152;52.078;8.414;2023-04-28T13:43:43;40.40;37.32;49.34;;
73822;Laerm;62152;52.078;8.414;2023-04-28T13:47:44;39.97;36.91;47.63;;
73822;Laerm;62152;52.078;8.414;2023-04-28T13:51:46;39.95;37.52;44.27;;
73822;Laerm;62152;52.078;8.414;2023-04-28T13:55:49;40.49;37.35;45.66;;
73822;Laerm;62152;52.078;8.414;2023-04-28T13:59:50;40.46;37.12;48.32;;
73822;Laerm;62152;52.078;8.414;2023-04-28T14:03:50;40.81;37.70;43.72;;
73822;Laerm;62152;52.078;8.414;2023-04-28T14:07:54;43.28;37.12;72.92;;
73822;Laerm;62152;52.078;8.414;2023-04-28T14:11:55;52.52;34.31;87.12;;
73822;Laerm;62152;52.078;8.414;2023-04-28T14:15:56;45.05;37.52;68.90;;
73822;Laerm;62152;52.078;8.414;2023-04-28T14:19:57;44.73;37.70;67.30;;
73822;Laerm;62152;52.078;8.414;2023-04-28T14:23:59;46.31;37.52;72.31;;
73822;Laerm;62152;52.078;8.414;2023-04-28T14:28:00;42.49;36.69;67.19;;
73822;Laerm;62152;52.078;8.414;2023-04-28T14:32:00;42.91;36.69;61.37;;
73822;Laerm;62152;52.078;8.414;2023-04-28T14:40:05;48.66;39.58;68.57;;
73822;Laerm;62152;52.078;8.414;2023-04-28T14:44:06;44.45;38.52;62.20;;
73822;Laerm;62152;52.078;8.414;2023-04-28T14:48:07;49.03;38.37;71.26;;
73822;Laerm;62152;52.078;8.414;2023-04-28T14:52:08;45.90;37.52;73.52;;
73822;Laerm;62152;52.078;8.414;2023-04-28T14:56:10;45.89;37.70;69.49;;
73822;Laerm;62152;52.078;8.414;2023-04-28T15:00:13;42.92;34.31;68.40;;
73822;Laerm;62152;52.078;8.414;2023-04-28T15:04:14;45.13;37.32;73.52;;
73822;Laerm;62152;52.078;8.414;2023-04-28T15:08:15;40.73;37.12;44.47;;
73822;Laerm;62152;52.078;8.414;2023-04-28T15:12:17;43.37;36.91;71.79;;
73822;Laerm;62152;52.078;8.414;2023-04-28T15:16:18;41.49;37.12;59.83;;
73822;Laerm;62152;52.078;8.414;2023-04-28T15:20:19;48.64;36.69;79.88;;
73822;Laerm;62152;52.078;8.414;2023-04-28T15:24:19;49.83;36.91;76.11;;
73822;Laerm;62152;52.078;8.414;2023-04-28T15:28:22;43.52;36.69;76.75;;
73822;Laerm;62152;52.078;8.414;2023-04-28T15:32:23;41.45;37.12;70.13;;
73822;Laerm;62152;52.078;8.414;2023-04-28T15:36:24;41.86;36.91;64.33;;
73822;Laerm;62152;52.078;8.414;2023-04-28T15:40:25;43.18;37.35;64.80;;
73822;Laerm;62152;52.078;8.414;2023-04-28T15:44:27;40.76;37.32;62.91;;
73822;Laerm;62152;52.078;8.414;2023-04-28T15:48:28;40.68;37.12;63.65;;
73822;Laerm;62152;52.078;8.414;2023-04-28T15:52:28;40.22;36.69;52.91;;
73822;Laerm;62152;52.078;8.414;2023-04-28T15:56:29;44.40;36.91;65.50;;
73822;Laerm;62152;52.078;8.414;2023-04-28T16:00:31;47.06;35.36;74.80;;
73822;Laerm;62152;52.078;8.414;2023-04-28T16:04:32;43.68;36.91;68.76;;
73822;Laerm;62152;52.078;8.414;2023-04-28T16:08:34;46.40;37.32;72.91;;
73822;Laerm;62152;52.078;8.414;2023-04-28T16:12:35;41.37;37.52;52.19;;
73822;Laerm;62152;52.078;8.414;2023-04-28T16:16:38;42.77;37.88;63.13;;
73822;Laerm;62152;52.078;8.414;2023-04-28T16:24:39;43.46;37.70;65.05;;
73822;Laerm;62152;52.078;8.414;2023-04-28T16:28:40;46.83;37.88;65.11;;
73822;Laerm;62152;52.078;8.414;2023-04-28T16:32:42;45.65;38.05;68.74;;
73822;Laerm;62152;52.078;8.414;2023-04-28T16:36:43;44.28;37.70;60.47;;
73822;Laerm;62152;52.078;8.414;2023-04-28T16:40:44;45.78;38.05;68.59;;
73822;Laerm;62152;52.078;8.414;2023-04-28T16:44:44;45.10;37.17;71.68;;
73822;Laerm;62152;52.078;8.414;2023-04-28T16:48:47;47.21;36.20;77.15;;
73822;Laerm;62152;52.078;8.414;2023-04-28T16:52:47;40.02;37.32;46.40;;
73822;Laerm;62152;52.078;8.414;2023-04-28T16:56:48;40.08;36.45;45.51;;
73822;Laerm;62152;52.078;8.414;2023-04-28T17:00:49;41.70;37.52;70.10;;
73822;Laerm;62152;52.078;8.414;2023-04-28T17:04:51;39.99;36.69;49.62;;
73822;Laerm;62152;52.078;8.414;2023-04-28T17:08:52;39.89;37.52;42.98;;
73822;Laerm;62152;52.078;8.414;2023-04-28T17:12:53;39.96;36.91;45.54;;
73822;Laerm;62152;52.078;8.414;2023-04-28T17:16:54;39.89;36.45;44.90;;
73822;Laerm;62152;52.078;8.414;2023-04-28T17:20:56;39.87;37.32;41.46;;
73822;Laerm;62152;52.078;8.414;2023-04-28T17:24:57;39.05;35.94;42.59;;
73822;Laerm;62152;52.078;8.414;2023-04-28T17:28:58;39.05;35.94;42.59;;
73822;Laerm;62152;52.078;8.414;2023-04-28T17:32:59;39.04;36.20;42.47;;
73822;Laerm;62152;52.078;8.414;2023-04-28T17:37:01;39.03;35.94;41.61;;
73822;Laerm;62152;52.078;8.414;2023-04-28T17:41:02;39.12;36.69;43.81;;
73822;Laerm;62152;52.078;8.414;2023-04-28T17:45:03;39.01;36.20;41.22;;
73822;Laerm;62152;52.078;8.414;2023-04-28T17:49:04;39.01;36.45;40.98;;
73822;Laerm;62152;52.078;8.414;2023-04-28T17:53:06;39.03;36.20;41.22;;
73822;Laerm;62152;52.078;8.414;2023-04-28T17:57:07;39.34;36.20;42.53;;
73822;Laerm;62152;52.078;8.414;2023-04-28T18:01:08;39.89;37.32;41.46;;
73822;Laerm;62152;52.078;8.414;2023-04-28T18:05:09;39.89;37.32;41.30;;
73822;Laerm;62152;52.078;8.414;2023-04-28T18:09:11;39.88;37.52;41.68;;
73822;Laerm;62152;52.078;8.414;2023-04-28T18:13:12;39.89;37.32;43.04;;
73822;Laerm;62152;52.078;8.414;2023-04-28T18:17:12;40.07;37.12;42.59;;
73822;Laerm;62152;52.078;8.414;2023-04-28T18:21:13;39.90;37.32;43.49;;
73822;Laerm;62152;52.078;8.414;2023-04-28T18:25:15;39.87;36.91;42.03;;
73822;Laerm;62152;52.078;8.414;2023-04-28T18:29:16;39.90;37.32;41.89;;
73822;Laerm;62152;52.078;8.414;2023-04-28T18:33:17;39.89;37.12;43.14;;
73822;Laerm;62152;52.078;8.414;2023-04-28T18:41:20;39.90;37.32;44.07;;
73822;Laerm;62152;52.078;8.414;2023-04-28T18:45:21;39.89;37.32;42.22;;
73822;Laerm;62152;52.078;8.414;2023-04-28T18:49:22;39.86;37.52;42.53;;
73822;Laerm;62152;52.078;8.414;2023-04-28T18:57:24;39.89;37.12;42.24;;
73822;Laerm;62152;52.078;8.414;2023-04-28T19:01:25;39.90;37.70;42.16;;
73822;Laerm;62152;52.078;8.414;2023-04-28T19:05:26;39.91;37.12;42.71;;
73822;Laerm;62152;52.078;8.414;2023-04-28T19:09:27;39.88;37.12;44.11;;
73822;Laerm;62152;52.078;8.414;2023-04-28T19:13:30;39.85;37.12;42.53;;
73822;Laerm;62152;52.078;8.414;2023-04-28T19:17:31;39.87;36.91;42.53;;
73822;Laerm;62152;52.078;8.414;2023-04-28T19:21:33;39.85;37.32;42.47;;
73822;Laerm;62152;52.078;8.414;2023-04-28T19:25:34;49.24;36.91;62.69;;
73822;Laerm;62152;52.078;8.414;2023-04-28T19:29:36;39.92;36.91;41.82;;
73822;Laerm;62152;52.078;8.414;2023-04-28T19:37:38;39.38;35.94;41.53;;
73822;Laerm;62152;52.078;8.414;2023-04-28T19:41:38;39.63;36.45;42.41;;
73822;Laerm;62152;52.078;8.414;2023-04-28T19:45:40;39.91;37.52;41.82;;
73822;Laerm;62152;52.078;8.414;2023-04-28T19:53:42;39.93;37.32;41.68;;
73822;Laerm;62152;52.078;8.414;2023-04-28T19:57:43;39.94;37.52;45.88;;
73822;Laerm;62152;52.078;8.414;2023-04-28T20:01:45;39.99;37.12;52.11;;
73822;Laerm;62152;52.078;8.414;2023-04-28T20:05:46;40.25;37.12;47.68;;
73822;Laerm;62152;52.078;8.414;2023-04-28T20:09:47;39.89;37.32;41.75;;
73822;Laerm;62152;52.078;8.414;2023-04-28T20:13:48;39.90;37.32;42.65;;
73822;Laerm;62152;52.078;8.414;2023-04-28T20:17:50;39.88;37.52;42.29;;
73822;Laerm;62152;52.078;8.414;2023-04-28T20:21:51;39.88;36.91;44.87;;
73822;Laerm;62152;52.078;8.414;2023-04-28T20:25:52;39.88;37.12;42.22;;
73822;Laerm;62152;52.078;8.414;2023-04-28T20:29:53;39.87;37.12;42.47;;
73822;Laerm;62152;52.078;8.414;2023-04-28T20:33:55;39.88;37.32;42.16;;
73822;Laerm;62152;52.078;8.414;2023-04-28T20:37:56;39.89;37.52;42.09;;
73822;Laerm;62152;52.078;8.414;2023-04-28T20:41:57;39.89;37.12;42.03;;
73822;Laerm;62152;52.078;8.414;2023-04-28T20:45:58;39.93;37.12;42.47;;
73822;Laerm;62152;52.078;8.414;2023-04-28T20:50:01;39.95;37.32;43.24;;
73822;Laerm;62152;52.078;8.414;2023-04-28T20:54:02;39.96;37.32;42.41;;
73822;Laerm;62152;52.078;8.414;2023-04-28T20:58:02;39.91;37.32;47.67;;
73822;Laerm;62152;52.078;8.414;2023-04-28T21:02:03;39.92;37.35;42.76;;
73822;Laerm;62152;52.078;8.414;2023-04-28T21:06:05;39.93;37.52;44.15;;
73822;Laerm;62152;52.078;8.414;2023-04-28T21:10:08;39.90;36.91;42.76;;
73822;Laerm;62152;52.078;8.414;2023-04-28T21:14:09;39.93;36.20;42.09;;
73822;Laerm;62152;52.078;8.414;2023-04-28T21:18:09;39.89;37.12;41.61;;
73822;Laerm;62152;52.078;8.414;2023-04-28T21:22:12;39.88;37.52;41.89;;
73822;Laerm;62152;52.078;8.414;2023-04-28T21:30:13;39.93;36.91;43.29;;
73822;Laerm;62152;52.078;8.414;2023-04-28T21:34:14;39.54;36.45;43.49;;
73822;Laerm;62152;52.078;8.414;2023-04-28T21:38:16;39.30;36.69;42.29;;
73822;Laerm;62152;52.078;8.414;2023-04-28T21:42:17;39.23;36.45;41.89;;
73822;Laerm;62152;52.078;8.414;2023-04-28T21:46:17;39.25;36.69;41.75;;
73822;Laerm;62152;52.078;8.414;2023-04-28T21:50:18;39.22;36.20;42.29;;
73822;Laerm;62152;52.078;8.414;2023-04-28T21:54:20;39.16;35.66;41.22;;
73822;Laerm;62152;52.078;8.414;2023-04-28T22:02:22;39.12;36.20;43.14;;
73822;Laerm;62152;52.078;8.414;2023-04-28T22:06:23;39.14;35.94;41.06;;
73822;Laerm;62152;52.078;8.414;2023-04-28T22:14:27;0.00;0.00;0.00;;
73822;Laerm;62152;52.078;8.414;2023-04-28T22:18:28;40.53;36.91;65.95;;
73822;Laerm;62152;52.078;8.414;2023-04-28T22:22:29;40.89;36.69;70.16;;
73822;Laerm;62152;52.078;8.414;2023-04-28T22:26:33;40.81;36.91;62.51;;
73822;Laerm;62152;52.078;8.414;2023-04-28T22:30:34;40.62;36.91;67.89;;
73822;Laerm;62152;52.078;8.414;2023-04-28T22:34:35;39.11;36.45;47.18;;
73822;Laerm;62152;52.078;8.414;2023-04-28T22:38:36;39.04;36.20;41.68;;
73822;Laerm;62152;52.078;8.414;2023-04-28T22:42:41;39.16;36.69;41.30;;
73822;Laerm;62152;52.078;8.414;2023-04-28T22:46:42;39.18;36.45;41.30;;
73822;Laerm;62152;52.078;8.414;2023-04-28T22:50:45;39.18;36.45;41.22;;
73822;Laerm;62152;52.078;8.414;2023-04-28T22:54:45;39.78;36.45;63.18;;
73822;Laerm;62152;52.078;8.414;2023-04-28T22:58:48;39.14;36.45;41.22;;
73822;Laerm;62152;52.078;8.414;2023-04-28T23:02:48;39.37;36.45;46.35;;
73822;Laerm;62152;52.078;8.414;2023-04-28T23:06:49;39.05;36.45;41.22;;
73822;Laerm;62152;52.078;8.414;2023-04-28T23:10:50;39.17;36.69;41.30;;
73822;Laerm;62152;52.078;8.414;2023-04-28T23:14:52;39.36;36.91;41.46;;
73822;Laerm;62152;52.078;8.414;2023-04-28T23:18:53;39.16;36.69;41.22;;
73822;Laerm;62152;52.078;8.414;2023-04-28T23:22:54;39.13;36.45;41.30;;
73822;Laerm;62152;52.078;8.414;2023-04-28T23:26:55;38.97;36.20;41.19;;
73822;Laerm;62152;52.078;8.414;2023-04-28T23:30:57;39.51;36.69;41.75;;
73822;Laerm;62152;52.078;8.414;2023-04-28T23:34:57;38.97;36.45;41.06;;
73822;Laerm;62152;52.078;8.414;2023-04-28T23:38:58;38.76;35.94;41.30;;
73822;Laerm;62152;52.078;8.414;2023-04-28T23:42:59;38.79;36.69;40.98;;
73822;Laerm;62152;52.078;8.414;2023-04-28T23:47:01;38.91;36.20;41.14;;
73822;Laerm;62152;52.078;8.414;2023-04-28T23:51:02;38.99;36.20;41.22;;
73822;Laerm;62152;52.078;8.414;2023-04-28T23:55:04;38.96;36.45;41.19;;
73822;Laerm;62152;52.078;8.414;2023-04-28T23:59:05;38.89;35.94;41.30;;
